Time;durP1;ratioP1;P1;durP2;ratioP2;P2;SDS_P1;SDS_P2;PMS_P1;PMS_P2;Temp;Humidity;BMP_temperature;BMP_pressure;BME280_temperature;BME280_humidity;BME280_pressure;Samples;Min_cycle;Max_cycle;Signal;HPM_P1;HPM_P2
2022/10/05 00:01:45;;;;;;;7.50;5.13;;;6.70;99.90;;;;;;4988330;28;20401;-78
2022/10/05 00:04:15;;;;;;;12.87;5.07;;;6.70;99.90;;;;;;4991520;28;20116;-78
2022/10/05 00:06:42;;;;;;;5.63;4.80;;;6.60;99.90;;;;;;4993861;28;20037;-78
2022/10/05 00:09:16;;;;;;;7.63;4.93;;;6.60;99.90;;;;;;4979825;28;20034;-78
2022/10/05 00:11:43;;;;;;;8.83;4.70;;;6.60;99.90;;;;;;4982540;28;20034;-78
2022/10/05 00:14:22;;;;;;;8.87;5.30;;;6.60;99.90;;;;;;4973825;28;20053;-78
2022/10/05 00:16:48;;;;;;;9.13;4.73;;;6.60;99.90;;;;;;4984955;28;20028;-78
2022/10/05 00:19:31;;;;;;;6.43;4.90;;;6.60;99.90;;;;;;4976562;28;20105;-78
2022/10/05 00:22:28;;;;;;;6.17;4.73;;;6.50;99.90;;;;;;4974281;28;20034;-79
2022/10/05 00:24:56;;;;;;;8.97;5.30;;;6.60;99.90;;;;;;4962537;28;20038;-78
2022/10/05 00:27:26;;;;;;;8.17;5.10;;;6.50;99.90;;;;;;4987439;28;20041;-78
2022/10/05 00:29:56;;;;;;;6.77;4.77;;;6.50;99.90;;;;;;4973978;28;20027;-79
2022/10/05 00:32:21;;;;;;;6.87;5.00;;;6.50;99.90;;;;;;4973890;28;20030;-79
2022/10/05 00:34:47;;;;;;;8.17;4.80;;;6.50;99.90;;;;;;4985740;28;20030;-79
2022/10/05 00:37:13;;;;;;;9.53;4.67;;;6.50;99.90;;;;;;4978546;28;20041;-78
2022/10/05 00:39:39;;;;;;;5.80;4.57;;;6.40;99.90;;;;;;4973807;28;20480;-78
2022/10/05 00:42:37;;;;;;;7.77;4.60;;;6.40;99.90;;;;;;4974011;28;20483;-78
2022/10/05 00:45:14;;;;;;;5.67;4.47;;;6.40;99.90;;;;;;4954936;29;20037;-78
2022/10/05 00:48:01;;;;;;;5.53;3.93;;;6.40;99.90;;;;;;4971641;28;20385;-78
2022/10/05 00:50:54;;;;;;;6.57;4.50;;;6.40;99.90;;;;;;4974244;28;20027;-78
2022/10/05 00:53:49;;;;;;;9.67;4.60;;;6.40;99.90;;;;;;4974039;28;20130;-78
2022/10/05 00:56:42;;;;;;;6.50;4.05;;;6.30;99.90;;;;;;4974189;28;20031;-78
2022/10/05 00:59:22;;;;;;;7.53;4.70;;;6.30;99.90;;;;;;4973801;28;20027;-78
2022/10/05 01:02:12;;;;;;;6.67;4.63;;;6.30;99.90;;;;;;4981439;28;20097;-78
2022/10/05 01:04:50;;;;;;;7.97;5.10;;;6.30;99.90;;;;;;4990204;28;20484;-78
2022/10/05 01:07:34;;;;;;;7.30;4.70;;;6.30;99.90;;;;;;4973689;28;20041;-79
2022/10/05 01:10:21;;;;;;;9.20;4.73;;;6.30;99.90;;;;;;4987406;28;20464;-78
2022/10/05 01:13:07;;;;;;;7.07;4.37;;;6.30;99.90;;;;;;4987203;28;20029;-78
2022/10/05 01:15:36;;;;;;;7.27;4.30;;;6.30;99.90;;;;;;4973590;28;20389;-78
2022/10/05 01:18:11;;;;;;;11.73;4.57;;;6.30;99.90;;;;;;4973250;28;20034;-78
2022/10/05 01:20:48;;;;;;;7.17;4.57;;;6.30;99.90;;;;;;4973643;28;20078;-79
2022/10/05 01:23:22;;;;;;;6.63;4.07;;;6.30;99.90;;;;;;4973124;28;20035;-78
2022/10/05 01:26:10;;;;;;;7.97;4.93;;;6.20;99.90;;;;;;4976761;28;20025;-78
2022/10/05 01:29:14;;;;;;;6.70;4.00;;;6.20;99.90;;;;;;4972874;28;20026;-78
2022/10/05 01:32:13;;;;;;;7.57;4.57;;;6.20;99.90;;;;;;4975612;28;20026;-78
2022/10/05 01:34:43;;;;;;;19.90;4.33;;;6.20;99.90;;;;;;4963774;28;20058;-78
2022/10/05 01:37:24;;;;;;;6.87;4.07;;;6.20;99.90;;;;;;4976966;28;20086;-78
2022/10/05 01:40:07;;;;;;;13.23;4.20;;;6.10;99.90;;;;;;4964163;28;20019;-78
2022/10/05 01:42:56;;;;;;;8.63;4.20;;;6.10;99.90;;;;;;4976726;28;20034;-78
2022/10/05 01:45:25;;;;;;;7.87;4.30;;;6.10;99.90;;;;;;4977092;28;20023;-78
2022/10/05 01:48:22;;;;;;;8.03;4.73;;;6.10;99.90;;;;;;4977018;28;20030;-78
2022/10/05 01:51:19;;;;;;;6.57;3.90;;;6.10;99.90;;;;;;4949087;28;20039;-78
2022/10/05 01:54:26;;;;;;;5.23;4.20;;;6.10;99.90;;;;;;4966966;28;20408;-78
2022/10/05 01:57:03;;;;;;;7.73;4.30;;;6.10;99.90;;;;;;4964500;28;20015;-78
2022/10/05 02:00:07;;;;;;;5.87;3.83;;;6.10;99.90;;;;;;4976904;28;20495;-78
2022/10/05 02:02:38;;;;;;;6.83;3.77;;;6.10;99.90;;;;;;4977105;28;20077;-78
2022/10/05 02:05:12;;;;;;;5.17;3.70;;;6.10;99.90;;;;;;4976909;28;20019;-78
2022/10/05 02:07:53;;;;;;;4.82;3.88;;;6.10;99.90;;;;;;4976600;28;20495;-78
2022/10/05 02:10:24;;;;;;;6.83;3.97;;;6.10;99.90;;;;;;4976878;28;20491;-78
2022/10/05 02:12:57;;;;;;;6.93;4.17;;;6.20;99.90;;;;;;4976678;28;20388;-78
2022/10/05 02:15:28;;;;;;;12.60;4.10;;;6.10;99.90;;;;;;4976467;28;20043;-78
2022/10/05 02:18:03;;;;;;;5.53;3.97;;;6.20;99.90;;;;;;4988020;28;20030;-78
2022/10/05 02:20:33;;;;;;;5.85;3.47;;;6.20;99.90;;;;;;4982393;28;20060;-78
2022/10/05 02:23:04;;;;;;;6.17;3.70;;;6.10;99.90;;;;;;4995944;28;20058;-77
2022/10/05 02:25:34;;;;;;;5.80;3.93;;;6.10;99.90;;;;;;4978159;28;20022;-78
2022/10/05 02:28:10;;;;;;;5.80;3.80;;;6.10;99.90;;;;;;4965939;28;20035;-78
2022/10/05 02:30:49;;;;;;;6.17;3.80;;;6.10;99.90;;;;;;4960975;28;20045;-78
2022/10/05 02:33:26;;;;;;;6.37;3.90;;;6.10;99.90;;;;;;4976273;28;20612;-78
2022/10/05 02:35:52;;;;;;;7.50;4.40;;;6.10;99.90;;;;;;4976446;28;20544;-78
2022/10/05 02:38:47;;;;;;;4.03;3.63;;;6.20;99.90;;;;;;4976186;28;20106;-78
2022/10/05 02:41:32;;;;;;;6.05;3.70;;;6.10;99.90;;;;;;4957242;28;20034;-78
2022/10/05 02:44:27;;;;;;;6.50;4.00;;;6.20;99.90;;;;;;4971553;28;20026;-78
2022/10/05 02:47:28;;;;;;;6.72;3.70;;;6.20;99.90;;;;;;4976086;28;20118;-78
2022/10/05 02:50:13;;;;;;;7.33;4.20;;;6.20;99.90;;;;;;4938429;28;20035;-78
2022/10/05 02:52:44;;;;;;;5.72;4.35;;;6.20;99.90;;;;;;4959252;28;20022;-78
2022/10/05 02:55:20;;;;;;;6.80;3.60;;;6.20;99.90;;;;;;4974664;28;20127;-78
2022/10/05 02:57:51;;;;;;;7.47;4.10;;;6.20;99.90;;;;;;4976067;28;20373;-78
2022/10/05 03:00:23;;;;;;;8.43;4.20;;;6.10;99.90;;;;;;4983987;28;20049;-78
2022/10/05 03:02:57;;;;;;;4.97;3.43;;;6.10;99.90;;;;;;4995184;28;20039;-78
2022/10/05 03:05:36;;;;;;;4.63;3.53;;;6.10;99.90;;;;;;4995500;28;20038;-78
2022/10/05 03:08:14;;;;;;;4.83;3.23;;;6.10;99.90;;;;;;4978566;28;20031;-78
2022/10/05 03:11:15;;;;;;;8.23;3.43;;;6.10;99.90;;;;;;4986252;28;20030;-78
2022/10/05 03:13:58;;;;;;;8.00;4.03;;;6.10;99.90;;;;;;4987344;28;20391;-78
2022/10/05 03:16:41;;;;;;;5.40;3.50;;;6.00;99.90;;;;;;4975241;28;20093;-78
2022/10/05 03:19:17;;;;;;;5.57;3.20;;;6.00;99.90;;;;;;4975661;28;20472;-78
2022/10/05 03:21:57;;;;;;;6.53;3.40;;;6.00;99.90;;;;;;4975225;28;20030;-78
2022/10/05 03:25:02;;;;;;;6.13;3.60;;;6.00;99.90;;;;;;4975040;28;20109;-78
2022/10/05 03:27:48;;;;;;;3.70;3.40;;;5.90;99.90;;;;;;4943842;28;20392;-78
2022/10/05 03:30:15;;;;;;;6.53;3.30;;;5.90;99.90;;;;;;4974870;28;20035;-78
2022/10/05 03:32:49;;;;;;;4.03;3.00;;;5.90;99.90;;;;;;4975268;28;20098;-78
2022/10/05 03:35:33;;;;;;;5.20;3.50;;;5.90;99.90;;;;;;4975063;28;20053;-78
2022/10/05 03:38:11;;;;;;;5.53;4.00;;;5.80;99.90;;;;;;4975005;28;20503;-78
2022/10/05 03:40:46;;;;;;;3.70;3.00;;;5.80;99.90;;;;;;4975103;28;20030;-78
2022/10/05 03:43:48;;;;;;;3.97;3.30;;;5.80;99.90;;;;;;4975240;28;20057;-78
2022/10/05 03:46:51;;;;;;;3.87;2.77;;;5.70;99.90;;;;;;4975226;28;20034;-78
2022/10/05 03:49:22;;;;;;;4.80;3.27;;;5.70;99.90;;;;;;4974106;28;20507;-78
2022/10/05 03:52:13;;;;;;;6.80;3.30;;;5.70;99.90;;;;;;4975019;28;20065;-78
2022/10/05 03:54:49;;;;;;;6.87;3.37;;;5.80;99.90;;;;;;4965478;28;20041;-78
2022/10/05 03:57:20;;;;;;;10.13;4.60;;;5.80;99.90;;;;;;4974809;28;20090;-78
2022/10/05 03:59:54;;;;;;;8.50;3.93;;;5.80;99.90;;;;;;4974684;28;20022;-78
2022/10/05 04:03:02;;;;;;;9.63;4.23;;;5.80;99.90;;;;;;4974827;28;20033;-77
2022/10/05 04:05:42;;;;;;;7.43;3.80;;;5.80;99.90;;;;;;4969775;28;20270;-78
2022/10/05 04:08:36;;;;;;;7.37;3.53;;;5.80;99.90;;;;;;4974722;28;20065;-78
2022/10/05 04:11:07;;;;;;;5.93;3.30;;;5.80;99.90;;;;;;4974865;28;20023;-78
2022/10/05 04:13:57;;;;;;;5.53;3.10;;;5.80;99.90;;;;;;4954566;28;20468;-78
2022/10/05 04:16:45;;;;;;;5.60;2.90;;;5.80;99.90;;;;;;4955514;28;20044;-78
2022/10/05 04:19:20;;;;;;;23.27;15.77;;;5.80;99.90;;;;;;4955600;29;20031;-78
2022/10/05 04:22:02;;;;;;;15.35;9.50;;;5.80;99.90;;;;;;4969988;28;20027;-75
2022/10/05 04:24:35;;;;;;;12.27;7.13;;;5.80;99.90;;;;;;4980477;28;20035;-75
2022/10/05 04:27:22;;;;;;;13.23;6.17;;;5.80;99.90;;;;;;4993419;28;20805;-75
2022/10/05 04:29:56;;;;;;;8.60;5.77;;;5.80;99.90;;;;;;4958660;28;20023;-75
2022/10/05 04:32:37;;;;;;;8.03;3.93;;;5.80;99.90;;;;;;4962319;28;20023;-75
2022/10/05 04:35:24;;;;;;;7.03;4.30;;;5.80;99.90;;;;;;4989091;28;20360;-75
2022/10/05 04:38:11;;;;;;;8.73;3.93;;;5.80;99.90;;;;;;4972859;28;20029;-75
2022/10/05 04:40:49;;;;;;;7.87;4.47;;;5.70;99.90;;;;;;4980137;28;20029;-75
2022/10/05 04:43:33;;;;;;;19.90;11.23;;;5.70;99.90;;;;;;4993879;28;20058;-75
2022/10/05 04:46:26;;;;;;;19.13;11.50;;;5.70;99.90;;;;;;4993903;28;20489;-75
2022/10/05 04:48:58;;;;;;;8.90;5.30;;;5.70;99.90;;;;;;4993610;28;20379;-75
2022/10/05 04:51:35;;;;;;;7.47;4.30;;;5.70;99.90;;;;;;4993648;28;20082;-75
2022/10/05 04:54:18;;;;;;;7.50;3.73;;;5.70;99.90;;;;;;4993778;28;20364;-75
2022/10/05 04:56:51;;;;;;;4.90;3.43;;;5.70;99.90;;;;;;4959414;28;20038;-73
2022/10/05 04:59:45;;;;;;;5.93;3.37;;;5.70;99.90;;;;;;4973753;28;20105;-73
2022/10/05 05:02:30;;;;;;;6.40;3.73;;;5.60;99.90;;;;;;4970378;28;20480;-74
2022/10/05 05:05:19;;;;;;;7.43;3.43;;;5.60;99.90;;;;;;4978613;28;20058;-74
2022/10/05 05:08:00;;;;;;;4.73;3.47;;;5.60;99.90;;;;;;4992822;28;20037;-75
2022/10/05 05:10:57;;;;;;;6.83;3.40;;;5.60;99.90;;;;;;4983106;28;21232;-74
2022/10/05 05:13:41;;;;;;;10.20;3.00;;;5.60;99.90;;;;;;4972015;28;20019;-74
2022/10/05 05:16:22;;;;;;;6.37;2.87;;;5.50;99.90;;;;;;4974265;28;20055;-74
2022/10/05 05:19:03;;;;;;;7.03;2.83;;;5.50;99.90;;;;;;4981041;28;20113;-74
2022/10/05 05:21:45;;;;;;;3.93;2.83;;;5.50;99.90;;;;;;4975439;28;20027;-74
2022/10/05 05:24:28;;;;;;;5.90;2.97;;;5.50;99.90;;;;;;4979412;28;20035;-74
2022/10/05 05:27:24;;;;;;;6.27;3.57;;;5.50;99.90;;;;;;4967787;28;20074;-74
2022/10/05 05:30:07;;;;;;;5.70;3.25;;;5.50;99.90;;;;;;4977579;28;20117;-74
2022/10/05 05:33:01;;;;;;;3.57;2.90;;;5.50;99.90;;;;;;4974435;28;20477;-74
2022/10/05 05:35:38;;;;;;;6.63;3.80;;;5.50;99.90;;;;;;4964664;28;20421;-74
2022/10/05 05:38:22;;;;;;;5.97;3.00;;;5.60;99.90;;;;;;4970914;28;20057;-74
2022/10/05 05:41:08;;;;;;;3.55;2.58;;;5.60;99.90;;;;;;4968239;28;20030;-74
2022/10/05 05:43:48;;;;;;;7.80;2.60;;;5.60;99.90;;;;;;4968410;28;20467;-74
2022/10/05 05:46:17;;;;;;;7.37;3.20;;;5.60;99.90;;;;;;4962845;28;20042;-74
2022/10/05 05:48:46;;;;;;;5.80;3.70;;;5.60;99.90;;;;;;4974475;28;20046;-74
2022/10/05 05:51:20;;;;;;;6.00;3.57;;;5.60;99.90;;;;;;4974698;28;20041;-74
2022/10/05 05:54:14;;;;;;;5.80;3.58;;;5.70;99.90;;;;;;4974692;28;20111;-74
2022/10/05 05:56:47;;;;;;;6.73;3.53;;;5.70;99.90;;;;;;4961276;28;20061;-74
2022/10/05 05:59:41;;;;;;;9.77;3.73;;;5.70;99.90;;;;;;4974707;28;20034;-74
2022/10/05 06:02:16;;;;;;;6.03;3.70;;;5.70;99.90;;;;;;4963755;28;20034;-74
2022/10/05 06:05:13;;;;;;;5.35;3.33;;;5.90;99.90;;;;;;4973906;28;20490;-74
2022/10/05 06:07:39;;;;;;;6.47;3.40;;;5.90;99.90;;;;;;4973440;28;20050;-75
2022/10/05 06:10:23;;;;;;;4.13;3.30;;;6.00;99.90;;;;;;4975176;28;20027;-88
2022/10/05 06:12:52;;;;;;;5.33;2.70;;;6.10;99.90;;;;;;4975365;28;20102;-81
2022/10/05 06:16:44;;;;;;;7.60;2.67;;;6.20;99.90;;;;;;5069468;28;20480;-85
2022/10/05 06:19:18;;;;;;;6.30;3.00;;;6.30;99.90;;;;;;5045517;28;20432;-80
2022/10/05 06:22:03;;;;;;;6.63;2.67;;;6.40;99.90;;;;;;5050162;28;20458;-86
2022/10/05 06:24:35;;;;;;;6.28;2.67;;;6.50;99.90;;;;;;5044535;28;20426;-84
2022/10/05 06:27:23;;;;;;;4.43;2.60;;;6.70;99.90;;;;;;5045552;28;20148;-85
2022/10/05 06:30:01;;;;;;;4.10;2.77;;;6.80;99.90;;;;;;5049846;28;20029;-85
2022/10/05 06:32:34;;;;;;;4.80;2.70;;;7.00;99.90;;;;;;5036276;28;20044;-84
2022/10/05 06:35:24;;;;;;;4.80;2.70;;;7.10;99.90;;;;;;5037745;28;20040;-84
2022/10/05 06:38:04;;;;;;;6.13;2.50;;;7.20;99.90;;;;;;5047845;28;20052;-83
2022/10/05 06:40:44;;;;;;;4.90;3.10;;;7.40;99.90;;;;;;5034806;28;20359;-83
2022/10/05 06:43:41;;;;;;;3.30;2.20;;;7.50;99.90;;;;;;5037897;28;20040;-83
2022/10/05 06:46:24;;;;;;;4.87;2.10;;;7.60;99.90;;;;;;5049136;28;20025;-84
2022/10/05 06:49:09;;;;;;;4.37;2.40;;;7.80;99.90;;;;;;5053090;28;20044;-83
2022/10/05 06:51:48;;;;;;;4.07;2.20;;;7.90;99.90;;;;;;5034835;28;20044;-83
2022/10/05 06:54:38;;;;;;;4.27;2.10;;;8.10;99.90;;;;;;5048973;28;20033;-83
2022/10/05 06:57:07;;;;;;;4.67;2.30;;;8.20;99.90;;;;;;5052583;28;20029;-83
2022/10/05 06:59:44;;;;;;;3.87;1.97;;;8.40;99.90;;;;;;5048042;28;20048;-84
2022/10/05 07:02:20;;;;;;;4.53;2.03;;;8.60;99.90;;;;;;5049090;28;20026;-84
2022/10/05 07:04:55;;;;;;;2.73;2.00;;;8.80;99.90;;;;;;5034829;28;20037;-83
2022/10/05 07:07:40;;;;;;;3.90;1.83;;;8.90;99.90;;;;;;5048797;28;20083;-84
2022/10/05 07:10:32;;;;;;;2.83;1.73;;;9.20;99.90;;;;;;5062714;28;20021;-86
2022/10/05 07:13:10;;;;;;;3.47;1.60;;;9.40;99.90;;;;;;5052558;28;20055;-87
2022/10/05 07:15:39;;;;;;;4.10;1.57;;;9.60;99.90;;;;;;5058806;28;20094;-87
2022/10/05 07:18:31;;;;;;;2.87;1.57;;;9.70;99.90;;;;;;5040925;28;20033;-81
2022/10/05 07:22:07;;;;;;;3.90;1.80;;;9.90;99.90;;;;;;5030054;28;20072;-96
2022/10/05 07:24:40;;;;;;;3.10;1.60;;;10.10;99.90;;;;;;5042411;28;20503;-84
2022/10/05 07:27:16;;;;;;;5.60;1.90;;;10.30;99.90;;;;;;5037389;28;20100;-84
2022/10/05 07:29:58;;;;;;;4.10;1.80;;;10.50;99.90;;;;;;5037041;28;20033;-84
2022/10/05 07:32:46;;;;;;;4.22;1.90;;;10.70;99.90;;;;;;5043641;28;20029;-84
2022/10/05 07:38:21;;;;;;;2.80;1.30;;;11.00;99.90;;;;;;5045050;28;20076;-84
2022/10/05 07:40:55;;;;;;;3.25;1.60;;;11.20;99.90;;;;;;5034651;28;20408;-84
2022/10/05 07:43:45;;;;;;;4.50;1.60;;;11.40;99.90;;;;;;5035975;28;20422;-84
2022/10/05 07:46:24;;;;;;;3.42;1.40;;;11.60;99.90;;;;;;5035557;28;20033;-84
2022/10/05 07:49:20;;;;;;;4.55;1.85;;;11.80;99.90;;;;;;5035323;28;20029;-84
2022/10/05 07:51:54;;;;;;;3.03;1.77;;;12.00;99.90;;;;;;5035400;28;20029;-85
2022/10/05 07:54:22;;;;;;;4.18;1.50;;;12.20;99.90;;;;;;5035412;28;20088;-85
2022/10/05 07:57:01;;;;;;;4.20;1.70;;;12.30;99.90;;;;;;5035173;28;20033;-84
2022/10/05 07:59:53;;;;;;;3.63;1.80;;;12.50;99.90;;;;;;5035374;28;20026;-84
2022/10/05 08:02:32;;;;;;;3.38;1.70;;;12.70;99.90;;;;;;5035225;28;20462;-84
2022/10/05 08:05:04;;;;;;;4.38;1.75;;;12.90;99.90;;;;;;5034782;28;20037;-88
2022/10/05 08:07:33;;;;;;;5.40;1.60;;;13.10;99.90;;;;;;5040597;28;20432;-87
2022/10/05 08:10:25;;;;;;;3.65;1.73;;;13.30;99.90;;;;;;5031268;28;20029;-88
2022/10/05 08:12:53;;;;;;;4.60;2.22;;;13.40;99.90;;;;;;5018285;28;20124;-88
2022/10/05 08:15:27;;;;;;;5.13;1.85;;;13.60;99.90;;;;;;5024944;28;20038;-88
2022/10/05 08:17:59;;;;;;;5.50;2.00;;;13.70;99.90;;;;;;5025719;28;20339;-88
2022/10/05 08:20:37;;;;;;;5.72;1.58;;;13.80;99.90;;;;;;5021094;28;20021;-85
2022/10/05 08:23:27;;;;;;;4.90;1.73;;;14.00;99.90;;;;;;5018815;28;20028;-77
2022/10/05 08:26:21;;;;;;;4.38;1.85;;;14.20;99.90;;;;;;5012325;28;20026;-86
2022/10/05 08:29:20;;;;;;;4.47;1.63;;;14.40;99.90;;;;;;5011567;28;20057;-85
2022/10/05 08:31:51;;;;;;;3.17;1.98;;;14.60;99.90;;;;;;5015634;28;20044;-85
2022/10/05 08:34:31;;;;;;;3.40;2.00;;;14.80;99.90;;;;;;5016471;28;20037;-85
2022/10/05 08:37:03;;;;;;;4.78;1.73;;;15.00;99.90;;;;;;5011752;28;20037;-83
2022/10/05 08:39:35;;;;;;;2.15;1.38;;;15.20;99.90;;;;;;5017217;28;20041;-83
2022/10/05 08:42:28;;;;;;;4.25;1.40;;;15.40;99.90;;;;;;5035884;28;20032;-83
2022/10/05 08:45:07;;;;;;;3.10;1.30;;;15.70;99.90;;;;;;5034010;28;20064;-83
2022/10/05 08:48:10;;;;;;;2.88;1.40;;;15.90;99.90;;;;;;5034446;28;20076;-84
2022/10/05 08:50:53;;;;;;;4.13;1.48;;;16.20;99.90;;;;;;5046797;28;20084;-83
2022/10/05 08:53:55;;;;;;;2.63;1.17;;;16.40;99.90;;;;;;5021254;28;20041;-83
2022/10/05 08:56:42;;;;;;;6.57;1.15;;;16.60;99.90;;;;;;5022017;28;20543;-83
2022/10/05 08:59:45;;;;;;;2.85;1.40;;;16.80;99.90;;;;;;5017754;28;20057;-83
2022/10/05 09:02:55;;;;;;;4.07;1.33;;;17.00;99.90;;;;;;4991627;28;20118;-83
2022/10/05 09:05:45;;;;;;;4.60;1.30;;;17.20;99.90;;;;;;4945383;28;20046;-82
2022/10/05 09:08:47;;;;;;;3.78;1.27;;;17.30;99.90;;;;;;5012833;28;20084;-82
2022/10/05 09:11:34;;;;;;;2.47;1.20;;;17.50;99.90;;;;;;5014001;28;20038;-82
2022/10/05 09:14:22;;;;;;;4.70;1.13;;;17.70;99.90;;;;;;5029483;28;20035;-82
2022/10/05 09:16:55;;;;;;;4.30;1.13;;;17.80;99.90;;;;;;5034166;28;20037;-83
2022/10/05 09:19:42;;;;;;;2.25;1.15;;;17.80;99.90;;;;;;5032162;28;20021;-86
2022/10/05 09:22:14;;;;;;;1.30;0.98;;;17.90;99.90;;;;;;5022361;28;20021;-86
2022/10/05 09:24:59;;;;;;;3.60;1.55;;;18.00;99.90;;;;;;5024701;28;20013;-86
2022/10/05 09:27:40;;;;;;;3.92;1.25;;;18.30;99.90;;;;;;5025814;28;20122;-86
2022/10/05 09:30:19;;;;;;;2.10;1.10;;;18.40;99.90;;;;;;5022273;28;20096;-87
2022/10/05 09:33:24;;;;;;;3.45;1.08;;;18.40;99.90;;;;;;5030106;28;20033;-87
2022/10/05 09:36:02;;;;;;;1.20;1.00;;;18.40;99.90;;;;;;5028714;28;20034;-86
2022/10/05 09:38:35;;;;;;;5.32;1.25;;;18.80;99.90;;;;;;5030449;28;20021;-87
2022/10/05 09:41:10;;;;;;;1.00;0.90;;;18.90;99.90;;;;;;5030010;28;20828;-86
2022/10/05 09:44:13;;;;;;;4.45;1.10;;;19.00;99.90;;;;;;5031143;28;20327;-84
2022/10/05 09:47:03;;;;;;;2.92;1.20;;;19.20;99.90;;;;;;5032462;28;20033;-84
2022/10/05 09:49:53;;;;;;;2.15;1.10;;;19.20;99.90;;;;;;5029802;28;20041;-84
2022/10/05 09:52:39;;;;;;;3.72;1.20;;;19.50;99.90;;;;;;5015059;28;20059;-83
2022/10/05 09:55:30;;;;;;;2.40;1.10;;;19.70;99.90;;;;;;5013490;28;20030;-83
2022/10/05 09:58:32;;;;;;;3.50;1.10;;;19.60;99.90;;;;;;5023962;28;20488;-82
2022/10/05 10:01:21;;;;;;;2.65;1.10;;;20.00;99.90;;;;;;5032797;28;20021;-84
2022/10/05 10:04:12;;;;;;;2.45;1.30;;;20.00;99.90;;;;;;5029250;28;20018;-84
2022/10/05 10:07:15;;;;;;;1.83;1.17;;;20.20;99.90;;;;;;5044102;28;20375;-86
2022/10/05 10:13:21;;;;;;;4.90;1.10;;;20.50;99.90;;;;;;5033141;28;20068;-83
2022/10/05 10:16:17;;;;;;;2.33;0.98;;;20.70;99.90;;;;;;5032631;28;20426;-83
2022/10/05 10:18:58;;;;;;;3.75;1.10;;;20.80;99.90;;;;;;5033035;28;20017;-83
2022/10/05 10:22:02;;;;;;;2.10;1.27;;;20.70;99.90;;;;;;5033106;28;20472;-83
2022/10/05 10:25:17;;;;;;;2.75;1.30;;;20.90;99.90;;;;;;5032952;28;20026;-83
2022/10/05 10:28:01;;;;;;;1.75;1.10;;;21.00;99.90;;;;;;5032946;28;20021;-83
2022/10/05 10:30:54;;;;;;;2.58;1.05;;;21.10;99.90;;;;;;5032684;28;20053;-83
2022/10/05 10:33:47;;;;;;;3.10;1.27;;;21.20;99.90;;;;;;5032904;28;20406;-83
2022/10/05 10:36:41;;;;;;;1.80;1.20;;;21.30;99.90;;;;;;5032790;28;20177;-83
2022/10/05 10:39:22;;;;;;;2.45;1.10;;;21.40;99.90;;;;;;5032627;28;20060;-83
2022/10/05 10:42:15;;;;;;;5.57;1.33;;;21.40;99.90;;;;;;5032872;28;20030;-84
2022/10/05 10:44:41;;;;;;;3.45;1.23;;;21.30;99.90;;;;;;5033043;28;20423;-84
2022/10/05 10:47:31;;;;;;;5.45;1.20;;;21.30;99.90;;;;;;5032755;28;20026;-83
2022/10/05 10:50:29;;;;;;;3.97;1.17;;;21.20;99.90;;;;;;5032697;28;20029;-84
2022/10/05 10:53:13;;;;;;;2.55;1.30;;;21.30;99.90;;;;;;5013316;28;20042;-83
2022/10/05 10:56:16;;;;;;;2.63;1.15;;;21.30;99.90;;;;;;5026830;28;20082;-82
2022/10/05 10:58:56;;;;;;;3.67;1.50;;;21.40;99.90;;;;;;5032472;28;20031;-83
2022/10/05 11:01:49;;;;;;;4.00;1.38;;;21.40;99.90;;;;;;5033368;28;20022;-83
2022/10/05 11:04:36;;;;;;;4.88;1.40;;;21.70;99.90;;;;;;5036163;28;20025;-83
2022/10/05 11:07:29;;;;;;;1.63;1.20;;;21.60;99.90;;;;;;5031013;28;20022;-87
2022/10/05 11:10:32;;;;;;;5.95;1.20;;;21.70;99.90;;;;;;5029422;28;20495;-87
2022/10/05 11:13:13;;;;;;;2.75;1.48;;;21.70;99.90;;;;;;5031676;28;20029;-87
2022/10/05 11:15:56;;;;;;;5.30;1.38;;;21.80;99.90;;;;;;5032439;28;20091;-87
2022/10/05 11:18:57;;;;;;;2.33;1.60;;;22.00;99.90;;;;;;5013557;28;20026;-86
2022/10/05 11:21:46;;;;;;;1.50;0.90;;;22.10;99.90;;;;;;5022113;28;20439;-87
2022/10/05 11:24:33;;;;;;;5.68;1.23;;;22.40;99.90;;;;;;5036049;28;20021;-87
2022/10/05 11:27:18;;;;;;;5.90;1.10;;;22.40;99.90;;;;;;5040168;28;20131;-87
2022/10/05 11:29:50;;;;;;;3.40;1.20;;;22.80;99.90;;;;;;5024677;28;20092;-87
2022/10/05 11:32:34;;;;;;;2.63;1.13;;;23.10;99.90;;;;;;5027068;28;20048;-86
2022/10/05 11:35:19;;;;;;;5.88;1.25;;;23.20;99.90;;;;;;5032266;28;20112;-87
2022/10/05 11:38:13;;;;;;;2.20;1.08;;;23.30;99.90;;;;;;5037526;28;20779;-87
2022/10/05 11:40:57;;;;;;;0.80;0.80;;;23.40;99.90;;;;;;5036050;28;20092;-87
2022/10/05 11:44:14;;;;;;;3.43;1.40;;;23.50;99.90;;;;;;5037111;28;20442;-87
2022/10/05 11:47:09;;;;;;;1.95;0.98;;;23.80;99.90;;;;;;5031449;28;20120;-88
2022/10/05 11:50:05;;;;;;;2.20;1.05;;;23.90;99.90;;;;;;5033515;28;20424;-86
2022/10/05 11:52:56;;;;;;;5.13;1.27;;;24.00;99.90;;;;;;5016947;28;20073;-84
2022/10/05 11:55:28;;;;;;;2.63;1.10;;;23.90;99.90;;;;;;5019249;28;20104;-85
2022/10/05 11:58:30;;;;;;;1.80;1.00;;;23.90;99.90;;;;;;5032753;28;20454;-86
2022/10/05 12:00:59;;;;;;;2.70;1.00;;;24.30;99.90;;;;;;5034317;28;20033;-87
2022/10/05 12:03:37;;;;;;;2.97;1.08;;;24.40;99.90;;;;;;5041542;28;20025;-87
2022/10/05 12:06:18;;;;;;;3.03;1.05;;;24.30;99.90;;;;;;5034585;28;20033;-84
2022/10/05 12:09:09;;;;;;;6.15;1.13;;;24.40;99.90;;;;;;5035259;28;20367;-84
2022/10/05 12:12:10;;;;;;;3.28;0.90;;;24.50;99.90;;;;;;5035225;28;20093;-83
2022/10/05 12:14:46;;;;;;;1.88;0.98;;;24.50;99.90;;;;;;5012714;28;20049;-84
2022/10/05 12:17:23;;;;;;;5.05;1.10;;;24.70;99.90;;;;;;5032150;28;20029;-84
2022/10/05 12:20:09;;;;;;;2.03;0.85;;;24.70;99.90;;;;;;5034977;28;20386;-84
2022/10/05 12:22:45;;;;;;;2.35;1.00;;;24.50;99.90;;;;;;5034776;28;20033;-84
2022/10/05 12:25:20;;;;;;;6.38;0.98;;;24.40;99.90;;;;;;5034941;28;20057;-84
2022/10/05 12:27:50;;;;;;;2.97;1.13;;;24.10;99.90;;;;;;5034669;28;20083;-84
2022/10/05 12:30:22;;;;;;;2.58;1.05;;;24.10;99.90;;;;;;5034581;28;20030;-84
2022/10/05 12:32:59;;;;;;;1.85;0.90;;;23.90;99.90;;;;;;5034793;28;20029;-84
2022/10/05 12:35:32;;;;;;;1.45;1.05;;;23.70;99.90;;;;;;5034669;28;20022;-84
2022/10/05 12:38:11;;;;;;;1.83;1.00;;;23.60;99.90;;;;;;5034503;28;20032;-84
2022/10/05 12:40:49;;;;;;;1.42;0.90;;;23.50;99.90;;;;;;5035903;28;20025;-84
2022/10/05 12:43:43;;;;;;;2.03;1.08;;;23.30;99.90;;;;;;5054295;28;20422;-93
2022/10/05 12:46:30;;;;;;;3.13;1.10;;;23.20;99.90;;;;;;5014360;28;20028;-84
2022/10/05 12:49:01;;;;;;;4.15;1.52;;;23.30;99.90;;;;;;5014961;28;20026;-83
2022/10/05 12:51:51;;;;;;;2.30;1.10;;;23.30;99.90;;;;;;5014347;28;20080;-84
2022/10/05 12:54:47;;;;;;;3.17;0.95;;;23.30;99.90;;;;;;5014446;28;20446;-83
2022/10/05 12:57:25;;;;;;;2.40;1.08;;;23.20;99.90;;;;;;5014498;28;20060;-83
2022/10/05 12:59:57;;;;;;;2.10;1.10;;;23.30;99.90;;;;;;5014818;28;20029;-83
2022/10/05 13:02:25;;;;;;;3.28;0.90;;;23.30;99.90;;;;;;5014154;28;20018;-83
2022/10/05 13:05:14;;;;;;;2.38;1.10;;;23.20;99.90;;;;;;5014090;28;20083;-84
2022/10/05 13:07:51;;;;;;;1.98;1.02;;;23.10;99.90;;;;;;5013995;28;20036;-84
2022/10/05 13:10:39;;;;;;;4.80;1.20;;;23.20;99.90;;;;;;5014186;28;20026;-83
2022/10/05 13:13:35;;;;;;;1.80;1.02;;;23.30;99.90;;;;;;5033365;28;20075;-83
2022/10/05 13:16:28;;;;;;;2.13;0.90;;;23.30;99.90;;;;;;5039434;28;20048;-88
2022/10/05 13:19:20;;;;;;;1.55;1.00;;;23.30;99.90;;;;;;5016506;28;20355;-87
2022/10/05 13:22:05;;;;;;;1.67;0.90;;;23.30;99.90;;;;;;5026574;28;20018;-88
2022/10/05 13:25:03;;;;;;;2.58;1.15;;;23.30;99.90;;;;;;5037579;28;20465;-88
2022/10/05 13:27:34;;;;;;;1.50;1.00;;;23.20;99.90;;;;;;5029785;28;20033;-88
2022/10/05 13:30:19;;;;;;;2.25;1.20;;;23.20;99.90;;;;;;5026884;28;20026;-87
2022/10/05 13:33:14;;;;;;;3.88;1.10;;;23.20;99.90;;;;;;5055894;28;20037;-88
2022/10/05 13:35:53;;;;;;;2.73;1.30;;;23.30;99.90;;;;;;5025116;28;20125;-88
2022/10/05 13:38:35;;;;;;;2.60;1.00;;;23.40;99.90;;;;;;5027866;28;20017;-78
2022/10/05 13:41:10;;;;;;;3.42;1.00;;;23.30;99.90;;;;;;5022046;28;20026;-77
2022/10/05 13:44:02;;;;;;;3.10;0.90;;;23.40;99.90;;;;;;5036049;28;20032;-77
2022/10/05 13:46:46;;;;;;;3.58;0.90;;;23.50;99.90;;;;;;5040718;28;20033;-77
2022/10/05 13:49:34;;;;;;;2.47;1.00;;;23.40;99.90;;;;;;5024476;28;20028;-76
2022/10/05 13:52:18;;;;;;;1.90;0.95;;;23.30;99.90;;;;;;5041102;28;20275;-76
2022/10/05 13:54:53;;;;;;;3.55;1.00;;;23.20;99.90;;;;;;5032867;28;20057;-77
2022/10/05 13:57:45;;;;;;;3.67;1.02;;;23.10;99.90;;;;;;5038187;28;20482;-77
2022/10/05 14:00:20;;;;;;;5.93;1.10;;;23.10;99.90;;;;;;5027973;28;20037;-77
2022/10/05 14:02:50;;;;;;;4.57;0.93;;;23.00;99.90;;;;;;5041680;28;20079;-77
2022/10/05 14:05:20;;;;;;;2.75;0.93;;;23.00;99.90;;;;;;5041402;28;20025;-78
2022/10/05 14:07:51;;;;;;;3.70;1.05;;;23.00;99.90;;;;;;5049716;28;20029;-88
2022/10/05 14:10:37;;;;;;;4.50;1.10;;;23.00;99.90;;;;;;5027126;28;20104;-88
2022/10/05 14:13:14;;;;;;;1.48;0.90;;;23.00;99.90;;;;;;5025886;28;20410;-88
2022/10/05 14:15:40;;;;;;;3.15;1.10;;;23.00;99.90;;;;;;5027375;28;20045;-88
2022/10/05 14:18:26;;;;;;;3.40;1.00;;;23.00;99.90;;;;;;5031486;28;20048;-88
2022/10/05 14:20:59;;;;;;;5.25;1.00;;;23.00;99.90;;;;;;5027381;28;20029;-88